NKS1377 KMCO-KFLL
Flight info
| Callsign | NKS1377 |
|---|---|
| Flight time | 0h 39m |
| Altitude | 27000 |
| Route | DDANY3 JIPOD CUUDA3 |
| Aircraft | A320/M-SDE3FGHIRWY/LB1 |
Departure
| Time | 2026-04-26 00:28 |
|---|---|
| Airport | Orlando International Airport (KMCO) |
Arrival
| Time | 2026-04-26 01:07 |
|---|---|
| Airport | Fort Lauderdale Hollywood International Airport (KFLL) |
| Time | Latitude | Longitude | Altitude | Speed | Heading |
|---|---|---|---|---|---|
| 2026-04-26 00:10 | 28.43378 | -81.31619 | 97 ft | 0 kts | 92° |
| 2026-04-26 00:18 | 28.43378 | -81.31631 | 94 ft | 3 kts | 92° |
| 2026-04-26 00:19 | 28.43379 | -81.31654 | 94 ft | 1 kts | 92° |
| 2026-04-26 00:19 | 28.43378 | -81.31678 | 95 ft | 3 kts | 69° |
| 2026-04-26 00:19 | 28.43366 | -81.31696 | 97 ft | 3 kts | 13° |
| 2026-04-26 00:19 | 28.43347 | -81.31700 | 96 ft | 1 kts | 11° |
| 2026-04-26 00:20 | 28.43347 | -81.31701 | 96 ft | 1 kts | 11° |
| 2026-04-26 00:20 | 28.43347 | -81.31700 | 97 ft | 0 kts | 11° |
| 2026-04-26 00:22 | 28.43352 | -81.31699 | 95 ft | 3 kts | 12° |
| 2026-04-26 00:22 | 28.43392 | -81.31690 | 97 ft | 8 kts | 11° |
| 2026-04-26 00:22 | 28.43455 | -81.31675 | 97 ft | 9 kts | 9° |
| 2026-04-26 00:23 | 28.43466 | -81.31675 | 95 ft | 0 kts | 358° |
| 2026-04-26 00:23 | 28.43469 | -81.31675 | 96 ft | 1 kts | 358° |
| 2026-04-26 00:23 | 28.43493 | -81.31686 | 97 ft | 7 kts | 324° |
| 2026-04-26 00:24 | 28.43506 | -81.31746 | 98 ft | 11 kts | 260° |
| 2026-04-26 00:24 | 28.43515 | -81.31834 | 100 ft | 13 kts | 323° |
| 2026-04-26 00:24 | 28.43611 | -81.31845 | 99 ft | 15 kts | 359° |
| 2026-04-26 00:24 | 28.43726 | -81.31846 | 102 ft | 18 kts | 359° |
| 2026-04-26 00:25 | 28.43858 | -81.31848 | 99 ft | 20 kts | 359° |
| 2026-04-26 00:25 | 28.44003 | -81.31881 | 100 ft | 23 kts | 342° |
| 2026-04-26 00:25 | 28.44168 | -81.31901 | 100 ft | 25 kts | 359° |
| 2026-04-26 00:25 | 28.44351 | -81.31903 | 98 ft | 27 kts | 359° |
| 2026-04-26 00:26 | 28.44548 | -81.31905 | 99 ft | 29 kts | 359° |
| 2026-04-26 00:26 | 28.44727 | -81.31907 | 98 ft | 22 kts | 360° |
| 2026-04-26 00:26 | 28.44823 | -81.31961 | 98 ft | 17 kts | 281° |
| 2026-04-26 00:26 | 28.44824 | -81.32102 | 97 ft | 19 kts | 269° |
| 2026-04-26 00:27 | 28.44790 | -81.32224 | 97 ft | 16 kts | 204° |
| 2026-04-26 00:27 | 28.44630 | -81.32230 | 100 ft | 46 kts | 179° |
| 2026-04-26 00:27 | 28.44072 | -81.32223 | 101 ft | 111 kts | 180° |
| 2026-04-26 00:27 | 28.43120 | -81.32212 | 100 ft | 160 kts | 180° |
| 2026-04-26 00:28 | 28.41987 | -81.32207 | 629 ft | 164 kts | 175° |
| 2026-04-26 00:28 | 28.40834 | -81.32146 | 1333 ft | 164 kts | 176° |
| 2026-04-26 00:28 | 28.39713 | -81.32042 | 1979 ft | 167 kts | 166° |
| 2026-04-26 00:28 | 28.38627 | -81.31423 | 2294 ft | 188 kts | 139° |
| 2026-04-26 00:29 | 28.37678 | -81.30274 | 2562 ft | 212 kts | 133° |
| 2026-04-26 00:29 | 28.36764 | -81.28844 | 2928 ft | 238 kts | 112° |
| 2026-04-26 00:29 | 28.36324 | -81.26932 | 3408 ft | 261 kts | 105° |
| 2026-04-26 00:29 | 28.35845 | -81.24905 | 4217 ft | 270 kts | 107° |
| 2026-04-26 00:30 | 28.35314 | -81.22840 | 5092 ft | 276 kts | 107° |
| 2026-04-26 00:30 | 28.34763 | -81.20733 | 5971 ft | 281 kts | 108° |
| 2026-04-26 00:30 | 28.34205 | -81.18591 | 6848 ft | 285 kts | 107° |
| 2026-04-26 00:30 | 28.33644 | -81.16413 | 7677 ft | 290 kts | 107° |
| 2026-04-26 00:31 | 28.33076 | -81.14195 | 8506 ft | 295 kts | 107° |
| 2026-04-26 00:31 | 28.32502 | -81.11941 | 9334 ft | 300 kts | 107° |
| 2026-04-26 00:31 | 28.31925 | -81.09651 | 10130 ft | 305 kts | 106° |
| 2026-04-26 00:31 | 28.31320 | -81.07248 | 10434 ft | 328 kts | 106° |
| 2026-04-26 00:32 | 28.30671 | -81.04672 | 10659 ft | 351 kts | 106° |
| 2026-04-26 00:32 | 28.29985 | -81.01964 | 11153 ft | 362 kts | 106° |
| 2026-04-26 00:32 | 28.28571 | -80.96397 | 12497 ft | 372 kts | 105° |
| 2026-04-26 00:33 | 28.27854 | -80.93558 | 13176 ft | 376 kts | 105° |
| 2026-04-26 00:33 | 28.27128 | -80.90689 | 13776 ft | 381 kts | 105° |
| 2026-04-26 00:33 | 28.26395 | -80.87793 | 13935 ft | 382 kts | 105° |
| 2026-04-26 00:33 | 28.25657 | -80.84885 | 14265 ft | 385 kts | 105° |
| 2026-04-26 00:34 | 28.24910 | -80.81959 | 14924 ft | 388 kts | 105° |
| 2026-04-26 00:34 | 28.24156 | -80.79009 | 15538 ft | 391 kts | 105° |
| 2026-04-26 00:34 | 28.23396 | -80.76032 | 16126 ft | 395 kts | 105° |
| 2026-04-26 00:34 | 28.22629 | -80.73027 | 16704 ft | 399 kts | 105° |
| 2026-04-26 00:35 | 28.21854 | -80.69995 | 17290 ft | 402 kts | 105° |
| 2026-04-26 00:35 | 28.21062 | -80.66936 | 17892 ft | 406 kts | 107° |
| 2026-04-26 00:35 | 28.20154 | -80.63888 | 18443 ft | 410 kts | 112° |
| 2026-04-26 00:35 | 28.18708 | -80.61093 | 18935 ft | 414 kts | 130° |
| 2026-04-26 00:36 | 28.16607 | -80.58875 | 19466 ft | 415 kts | 148° |
| 2026-04-26 00:36 | 28.14028 | -80.57441 | 20014 ft | 414 kts | 163° |
| 2026-04-26 00:36 | 28.11291 | -80.56387 | 20546 ft | 417 kts | 163° |
| 2026-04-26 00:36 | 28.08525 | -80.55352 | 21068 ft | 420 kts | 164° |
| 2026-04-26 00:37 | 28.05735 | -80.54321 | 21563 ft | 423 kts | 164° |
| 2026-04-26 00:37 | 28.02928 | -80.53281 | 22055 ft | 426 kts | 164° |
| 2026-04-26 00:37 | 28.00102 | -80.52225 | 22532 ft | 429 kts | 164° |
| 2026-04-26 00:37 | 27.97257 | -80.51154 | 22876 ft | 432 kts | 163° |
| 2026-04-26 00:38 | 27.94389 | -80.50069 | 22953 ft | 440 kts | 163° |
| 2026-04-26 00:38 | 27.91437 | -80.48956 | 22944 ft | 454 kts | 163° |
| 2026-04-26 00:38 | 27.88390 | -80.47813 | 22935 ft | 467 kts | 163° |
| 2026-04-26 00:38 | 27.85272 | -80.46644 | 22940 ft | 478 kts | 163° |
| 2026-04-26 00:39 | 27.82078 | -80.45449 | 22948 ft | 488 kts | 163° |
| 2026-04-26 00:39 | 27.78825 | -80.44231 | 22947 ft | 496 kts | 163° |
| 2026-04-26 00:39 | 27.75537 | -80.42998 | 22954 ft | 499 kts | 163° |
| 2026-04-26 00:39 | 27.73357 | -80.42180 | 22954 ft | 499 kts | 163° |
| 2026-04-26 00:40 | 27.68945 | -80.40527 | 22951 ft | 499 kts | 163° |
| 2026-04-26 00:40 | 27.65649 | -80.39295 | 22956 ft | 499 kts | 163° |
| 2026-04-26 00:40 | 27.62351 | -80.38067 | 22947 ft | 499 kts | 163° |
| 2026-04-26 00:40 | 27.59050 | -80.36837 | 22954 ft | 499 kts | 163° |
| 2026-04-26 00:41 | 27.55752 | -80.35605 | 22941 ft | 500 kts | 163° |
| 2026-04-26 00:41 | 27.52450 | -80.34372 | 22946 ft | 500 kts | 163° |
| 2026-04-26 00:41 | 27.49149 | -80.33140 | 22941 ft | 500 kts | 163° |
| 2026-04-26 00:41 | 27.45849 | -80.31908 | 22942 ft | 500 kts | 163° |
| 2026-04-26 00:42 | 27.42550 | -80.30679 | 22937 ft | 499 kts | 163° |
| 2026-04-26 00:42 | 27.39252 | -80.29454 | 22926 ft | 499 kts | 163° |
| 2026-04-26 00:42 | 27.35957 | -80.28229 | 22934 ft | 498 kts | 163° |
| 2026-04-26 00:42 | 27.32673 | -80.27006 | 22952 ft | 497 kts | 163° |
| 2026-04-26 00:43 | 27.29396 | -80.25788 | 22958 ft | 496 kts | 163° |
| 2026-04-26 00:43 | 27.26125 | -80.24574 | 22917 ft | 495 kts | 163° |
| 2026-04-26 00:43 | 27.22868 | -80.23364 | 22502 ft | 491 kts | 163° |
| 2026-04-26 00:43 | 27.19631 | -80.22159 | 22241 ft | 489 kts | 163° |
| 2026-04-26 00:44 | 27.16404 | -80.20961 | 21981 ft | 487 kts | 163° |
| 2026-04-26 00:44 | 27.14231 | -80.20156 | 21815 ft | 486 kts | 163° |
| 2026-04-26 00:44 | 27.11065 | -80.18983 | 21563 ft | 485 kts | 163° |
| 2026-04-26 00:44 | 27.07836 | -80.17790 | 21254 ft | 475 kts | 163° |
| 2026-04-26 00:45 | 27.04801 | -80.16665 | 20751 ft | 447 kts | 163° |
| 2026-04-26 00:45 | 27.01891 | -80.15588 | 19863 ft | 434 kts | 163° |
| 2026-04-26 00:45 | 26.99048 | -80.14541 | 19444 ft | 426 kts | 164° |
| 2026-04-26 00:45 | 26.97961 | -80.14142 | 19232 ft | 425 kts | 163° |
| 2026-04-26 00:46 | 26.95488 | -80.13235 | 18747 ft | 422 kts | 163° |
| 2026-04-26 00:46 | 26.92698 | -80.12210 | 18173 ft | 421 kts | 163° |
| 2026-04-26 00:46 | 26.89967 | -80.11204 | 17611 ft | 416 kts | 163° |
| 2026-04-26 00:46 | 26.87227 | -80.10193 | 17017 ft | 413 kts | 163° |
| 2026-04-26 00:47 | 26.84512 | -80.09192 | 16434 ft | 409 kts | 163° |
| 2026-04-26 00:47 | 26.81815 | -80.08203 | 15831 ft | 406 kts | 163° |
| 2026-04-26 00:47 | 26.79148 | -80.07227 | 15332 ft | 401 kts | 163° |
| 2026-04-26 00:47 | 26.76505 | -80.06255 | 14734 ft | 398 kts | 163° |
| 2026-04-26 00:48 | 26.73846 | -80.05273 | 14126 ft | 396 kts | 162° |
| 2026-04-26 00:48 | 26.71237 | -80.04308 | 13501 ft | 394 kts | 162° |
| 2026-04-26 00:48 | 26.68646 | -80.03353 | 12881 ft | 390 kts | 162° |
| 2026-04-26 00:48 | 26.66118 | -80.02423 | 12295 ft | 386 kts | 163° |
| 2026-04-26 00:49 | 26.63574 | -80.01491 | 11711 ft | 383 kts | 163° |
| 2026-04-26 00:49 | 26.61055 | -80.00567 | 11125 ft | 379 kts | 162° |
| 2026-04-26 00:49 | 26.58526 | -79.99642 | 10593 ft | 375 kts | 163° |
| 2026-04-26 00:49 | 26.56141 | -79.98775 | 10446 ft | 355 kts | 163° |
| 2026-04-26 00:50 | 26.53856 | -79.97941 | 10328 ft | 336 kts | 162° |
| 2026-04-26 00:50 | 26.51688 | -79.97146 | 10205 ft | 320 kts | 162° |
| 2026-04-26 00:50 | 26.49608 | -79.96383 | 10066 ft | 311 kts | 162° |
| 2026-04-26 00:50 | 26.47570 | -79.95636 | 9828 ft | 306 kts | 163° |
| 2026-04-26 00:51 | 26.45546 | -79.94899 | 9405 ft | 307 kts | 163° |
| 2026-04-26 00:51 | 26.43525 | -79.94162 | 9044 ft | 306 kts | 162° |
| 2026-04-26 00:51 | 26.41511 | -79.93427 | 8719 ft | 304 kts | 163° |
| 2026-04-26 00:51 | 26.39447 | -79.93002 | 8403 ft | 299 kts | 179° |
| 2026-04-26 00:52 | 26.37397 | -79.93229 | 8080 ft | 295 kts | 197° |
| 2026-04-26 00:52 | 26.35534 | -79.94078 | 8000 ft | 287 kts | 212° |
| 2026-04-26 00:52 | 26.33802 | -79.95200 | 8009 ft | 288 kts | 212° |
| 2026-04-26 00:52 | 26.32064 | -79.96316 | 8012 ft | 288 kts | 212° |
| 2026-04-26 00:53 | 26.30322 | -79.97428 | 8010 ft | 288 kts | 211° |
| 2026-04-26 00:53 | 26.28582 | -79.98538 | 8009 ft | 288 kts | 211° |
| 2026-04-26 00:53 | 26.26842 | -79.99650 | 8008 ft | 288 kts | 212° |
| 2026-04-26 00:53 | 26.25102 | -80.00764 | 8009 ft | 288 kts | 212° |
| 2026-04-26 00:54 | 26.23364 | -80.01880 | 8008 ft | 288 kts | 212° |
| 2026-04-26 00:54 | 26.21628 | -80.02997 | 8011 ft | 288 kts | 211° |
| 2026-04-26 00:54 | 26.19902 | -80.04134 | 8003 ft | 288 kts | 216° |
| 2026-04-26 00:54 | 26.18443 | -80.05607 | 8004 ft | 277 kts | 233° |
| 2026-04-26 00:55 | 26.17453 | -80.07368 | 8002 ft | 263 kts | 248° |
| 2026-04-26 00:55 | 26.16845 | -80.09272 | 8000 ft | 261 kts | 253° |
| 2026-04-26 00:55 | 26.16272 | -80.11187 | 8004 ft | 260 kts | 253° |
| 2026-04-26 00:55 | 26.15695 | -80.13098 | 8005 ft | 261 kts | 253° |
| 2026-04-26 00:56 | 26.15174 | -80.15026 | 8012 ft | 259 kts | 261° |
| 2026-04-26 00:56 | 26.15025 | -80.17017 | 8011 ft | 258 kts | 272° |
| 2026-04-26 00:56 | 26.15045 | -80.19015 | 8008 ft | 258 kts | 272° |
| 2026-04-26 00:56 | 26.15058 | -80.21006 | 7767 ft | 257 kts | 271° |
| 2026-04-26 00:57 | 26.15066 | -80.22988 | 7534 ft | 254 kts | 271° |
| 2026-04-26 00:57 | 26.15072 | -80.24923 | 7395 ft | 246 kts | 271° |
| 2026-04-26 00:57 | 26.15084 | -80.26818 | 7137 ft | 244 kts | 271° |
| 2026-04-26 00:57 | 26.15102 | -80.28700 | 6838 ft | 243 kts | 271° |
| 2026-04-26 00:58 | 26.15109 | -80.30578 | 6538 ft | 242 kts | 271° |
| 2026-04-26 00:58 | 26.15102 | -80.32452 | 6236 ft | 242 kts | 270° |
| 2026-04-26 00:58 | 26.15083 | -80.34316 | 5926 ft | 241 kts | 269° |
| 2026-04-26 00:58 | 26.15055 | -80.36177 | 5614 ft | 240 kts | 269° |
| 2026-04-26 00:59 | 26.15022 | -80.38033 | 5292 ft | 239 kts | 269° |
| 2026-04-26 00:59 | 26.14989 | -80.39883 | 5002 ft | 239 kts | 268° |
| 2026-04-26 00:59 | 26.14954 | -80.41725 | 4696 ft | 238 kts | 268° |
| 2026-04-26 00:59 | 26.14916 | -80.43560 | 4380 ft | 237 kts | 268° |
| 2026-04-26 01:00 | 26.14811 | -80.45383 | 4062 ft | 235 kts | 255° |
| 2026-04-26 01:00 | 26.14045 | -80.46939 | 3763 ft | 230 kts | 222° |
| 2026-04-26 01:00 | 26.12667 | -80.47767 | 3458 ft | 227 kts | 189° |
| 2026-04-26 01:00 | 26.11123 | -80.47613 | 3128 ft | 226 kts | 156° |
| 2026-04-26 01:01 | 26.09934 | -80.46539 | 2995 ft | 220 kts | 128° |
| 2026-04-26 01:01 | 26.09078 | -80.45132 | 3002 ft | 219 kts | 123° |
| 2026-04-26 01:01 | 26.08273 | -80.43689 | 3001 ft | 220 kts | 123° |
| 2026-04-26 01:01 | 26.07479 | -80.42242 | 3006 ft | 219 kts | 122° |
| 2026-04-26 01:02 | 26.06805 | -80.40723 | 3014 ft | 221 kts | 105° |
| 2026-04-26 01:02 | 26.06686 | -80.39015 | 3015 ft | 223 kts | 91° |
| 2026-04-26 01:02 | 26.06689 | -80.37286 | 3013 ft | 224 kts | 92° |
| 2026-04-26 01:02 | 26.06687 | -80.35558 | 3024 ft | 223 kts | 91° |
| 2026-04-26 01:03 | 26.06681 | -80.33877 | 3002 ft | 211 kts | 92° |
| 2026-04-26 01:03 | 26.06674 | -80.32272 | 2840 ft | 203 kts | 92° |
| 2026-04-26 01:03 | 26.06666 | -80.30738 | 2594 ft | 195 kts | 92° |
| 2026-04-26 01:03 | 26.06659 | -80.29255 | 2339 ft | 189 kts | 92° |
| 2026-04-26 01:04 | 26.06652 | -80.27811 | 2094 ft | 186 kts | 92° |
| 2026-04-26 01:04 | 26.06645 | -80.26389 | 1852 ft | 180 kts | 92° |
| 2026-04-26 01:04 | 26.06640 | -80.25089 | 1648 ft | 157 kts | 93° |
| 2026-04-26 01:04 | 26.06634 | -80.23929 | 1439 ft | 144 kts | 92° |
| 2026-04-26 01:05 | 26.06627 | -80.22826 | 1252 ft | 142 kts | 94° |
| 2026-04-26 01:05 | 26.06621 | -80.21740 | 1064 ft | 140 kts | 93° |
| 2026-04-26 01:05 | 26.06615 | -80.20667 | 881 ft | 138 kts | 92° |
| 2026-04-26 01:05 | 26.06609 | -80.19607 | 726 ft | 137 kts | 92° |
| 2026-04-26 01:06 | 26.06603 | -80.18557 | 537 ft | 135 kts | 90° |
| 2026-04-26 01:06 | 26.06598 | -80.17508 | 366 ft | 136 kts | 92° |
| 2026-04-26 01:06 | 26.06596 | -80.16462 | 177 ft | 135 kts | 92° |
| 2026-04-26 01:06 | 26.06587 | -80.15420 | 27 ft | 130 kts | 92° |
| 2026-04-26 01:07 | 26.06581 | -80.14580 | 38 ft | 85 kts | 90° |
| 2026-04-26 01:07 | 26.06579 | -80.14078 | 71 ft | 42 kts | 90° |
| 2026-04-26 01:07 | 26.06589 | -80.13852 | 69 ft | 21 kts | 70° |
| 2026-04-26 01:07 | 26.06676 | -80.13729 | 65 ft | 16 kts | 33° |
| 2026-04-26 01:08 | 26.06742 | -80.13786 | 74 ft | 16 kts | 273° |
| 2026-04-26 01:08 | 26.06743 | -80.13923 | 67 ft | 18 kts | 270° |
| 2026-04-26 01:08 | 26.06712 | -80.14057 | 69 ft | 19 kts | 241° |
| 2026-04-26 01:08 | 26.06679 | -80.14181 | 51 ft | 16 kts | 263° |
| 2026-04-26 01:09 | 26.06677 | -80.14331 | 49 ft | 22 kts | 269° |
| 2026-04-26 01:09 | 26.06676 | -80.14514 | 43 ft | 24 kts | 270° |
| 2026-04-26 01:09 | 26.06675 | -80.14697 | 30 ft | 22 kts | 270° |
| 2026-04-26 01:09 | 26.06682 | -80.14844 | 20 ft | 18 kts | 278° |
| 2026-04-26 01:10 | 26.06738 | -80.14921 | 17 ft | 15 kts | 9° |
| 2026-04-26 01:10 | 26.06767 | -80.14834 | 15 ft | 13 kts | 91° |
| 2026-04-26 01:10 | 26.06766 | -80.14729 | 15 ft | 14 kts | 90° |
| 2026-04-26 01:10 | 26.06768 | -80.14613 | 15 ft | 14 kts | 79° |
| 2026-04-26 01:11 | 26.06840 | -80.14612 | 16 ft | 13 kts | 316° |
| 2026-04-26 01:11 | 26.06910 | -80.14677 | 16 ft | 14 kts | 324° |
| 2026-04-26 01:11 | 26.06988 | -80.14684 | 16 ft | 13 kts | 53° |
| 2026-04-26 01:11 | 26.06995 | -80.14601 | 16 ft | 7 kts | 68° |
| 2026-04-26 01:12 | 26.07028 | -80.14583 | 16 ft | 3 kts | 20° |
| 2026-04-26 01:12 | 26.07035 | -80.14580 | 16 ft | 0 kts | 20° |